sensor_id;sensor_type;location;lat;lon;timestamp;P1;durP1;ratioP1;P2;durP2;ratioP2
53650;SDS011;39552;45.776;15.892;2022-08-19T00:01:32;4.68;;;2.35;;
53650;SDS011;39552;45.776;15.892;2022-08-19T00:04:04;10.85;;;2.50;;
53650;SDS011;39552;45.776;15.892;2022-08-19T00:06:31;6.78;;;2.25;;
53650;SDS011;39552;45.776;15.892;2022-08-19T00:08:59;18.30;;;2.55;;
53650;SDS011;39552;45.776;15.892;2022-08-19T00:11:26;7.95;;;2.65;;
53650;SDS011;39552;45.776;15.892;2022-08-19T00:13:53;11.30;;;2.22;;
53650;SDS011;39552;45.776;15.892;2022-08-19T00:16:23;15.05;;;2.58;;
53650;SDS011;39552;45.776;15.892;2022-08-19T00:18:52;12.80;;;2.50;;
53650;SDS011;39552;45.776;15.892;2022-08-19T00:21:19;8.25;;;2.53;;
53650;SDS011;39552;45.776;15.892;2022-08-19T00:23:45;7.78;;;2.35;;
53650;SDS011;39552;45.776;15.892;2022-08-19T00:26:12;5.63;;;2.25;;
53650;SDS011;39552;45.776;15.892;2022-08-19T00:28:39;4.60;;;1.98;;
53650;SDS011;39552;45.776;15.892;2022-08-19T00:31:06;6.97;;;2.65;;
53650;SDS011;39552;45.776;15.892;2022-08-19T00:33:35;13.17;;;2.93;;
53650;SDS011;39552;45.776;15.892;2022-08-19T00:36:02;6.47;;;2.33;;
53650;SDS011;39552;45.776;15.892;2022-08-19T00:38:31;6.80;;;2.55;;
53650;SDS011;39552;45.776;15.892;2022-08-19T00:41:03;8.00;;;2.40;;
53650;SDS011;39552;45.776;15.892;2022-08-19T00:43:30;7.50;;;2.70;;
53650;SDS011;39552;45.776;15.892;2022-08-19T00:45:58;12.00;;;2.70;;
53650;SDS011;39552;45.776;15.892;2022-08-19T00:48:25;9.63;;;2.53;;
53650;SDS011;39552;45.776;15.892;2022-08-19T00:50:53;10.73;;;2.90;;
53650;SDS011;39552;45.776;15.892;2022-08-19T00:53:22;6.10;;;2.22;;
53650;SDS011;39552;45.776;15.892;2022-08-19T00:55:51;8.40;;;2.40;;
53650;SDS011;39552;45.776;15.892;2022-08-19T00:58:22;8.35;;;2.40;;
53650;SDS011;39552;45.776;15.892;2022-08-19T01:00:53;10.07;;;3.05;;
53650;SDS011;39552;45.776;15.892;2022-08-19T01:03:20;11.73;;;2.75;;
53650;SDS011;39552;45.776;15.892;2022-08-19T01:05:47;7.45;;;2.60;;
53650;SDS011;39552;45.776;15.892;2022-08-19T01:08:18;9.13;;;2.75;;
53650;SDS011;39552;45.776;15.892;2022-08-19T01:10:46;10.80;;;2.90;;
53650;SDS011;39552;45.776;15.892;2022-08-19T01:13:16;6.95;;;2.70;;
53650;SDS011;39552;45.776;15.892;2022-08-19T01:15:46;5.47;;;2.33;;
53650;SDS011;39552;45.776;15.892;2022-08-19T01:18:16;5.45;;;2.67;;
53650;SDS011;39552;45.776;15.892;2022-08-19T01:20:44;5.82;;;2.92;;
53650;SDS011;39552;45.776;15.892;2022-08-19T01:23:13;7.88;;;2.58;;
53650;SDS011;39552;45.776;15.892;2022-08-19T01:25:42;8.65;;;2.42;;
53650;SDS011;39552;45.776;15.892;2022-08-19T01:28:16;6.20;;;2.33;;
53650;SDS011;39552;45.776;15.892;2022-08-19T01:30:59;8.77;;;2.60;;
53650;SDS011;39552;45.776;15.892;2022-08-19T01:33:33;6.72;;;2.80;;
53650;SDS011;39552;45.776;15.892;2022-08-19T01:36:04;10.20;;;2.65;;
53650;SDS011;39552;45.776;15.892;2022-08-19T01:38:35;8.10;;;2.42;;
53650;SDS011;39552;45.776;15.892;2022-08-19T01:41:10;13.82;;;3.35;;
53650;SDS011;39552;45.776;15.892;2022-08-19T01:43:37;12.57;;;3.10;;
53650;SDS011;39552;45.776;15.892;2022-08-19T01:46:23;8.60;;;3.03;;
53650;SDS011;39552;45.776;15.892;2022-08-19T01:48:50;10.45;;;2.72;;
53650;SDS011;39552;45.776;15.892;2022-08-19T01:51:17;8.00;;;2.97;;
53650;SDS011;39552;45.776;15.892;2022-08-19T01:53:48;13.52;;;2.97;;
53650;SDS011;39552;45.776;15.892;2022-08-19T01:56:16;12.35;;;2.92;;
53650;SDS011;39552;45.776;15.892;2022-08-19T01:58:44;8.90;;;3.08;;
53650;SDS011;39552;45.776;15.892;2022-08-19T02:01:15;12.45;;;2.80;;
53650;SDS011;39552;45.776;15.892;2022-08-19T02:03:42;5.28;;;2.97;;
53650;SDS011;39552;45.776;15.892;2022-08-19T02:06:08;10.43;;;3.03;;
53650;SDS011;39552;45.776;15.892;2022-08-19T02:08:36;17.75;;;3.17;;
53650;SDS011;39552;45.776;15.892;2022-08-19T02:11:06;5.10;;;2.77;;
53650;SDS011;39552;45.776;15.892;2022-08-19T02:13:34;4.82;;;2.45;;
53650;SDS011;39552;45.776;15.892;2022-08-19T02:16:01;8.45;;;3.25;;
53650;SDS011;39552;45.776;15.892;2022-08-19T02:18:29;7.47;;;3.00;;
53650;SDS011;39552;45.776;15.892;2022-08-19T02:20:56;10.18;;;3.30;;
53650;SDS011;39552;45.776;15.892;2022-08-19T02:23:23;9.07;;;3.47;;
53650;SDS011;39552;45.776;15.892;2022-08-19T02:25:50;12.50;;;3.47;;
53650;SDS011;39552;45.776;15.892;2022-08-19T02:28:19;8.65;;;3.20;;
53650;SDS011;39552;45.776;15.892;2022-08-19T02:30:46;9.18;;;3.63;;
53650;SDS011;39552;45.776;15.892;2022-08-19T02:33:13;9.20;;;3.30;;
53650;SDS011;39552;45.776;15.892;2022-08-19T02:35:41;10.73;;;3.22;;
53650;SDS011;39552;45.776;15.892;2022-08-19T02:38:08;8.93;;;3.38;;
53650;SDS011;39552;45.776;15.892;2022-08-19T02:40:35;10.48;;;3.40;;
53650;SDS011;39552;45.776;15.892;2022-08-19T02:43:02;6.47;;;3.17;;
53650;SDS011;39552;45.776;15.892;2022-08-19T02:45:32;10.15;;;3.15;;
53650;SDS011;39552;45.776;15.892;2022-08-19T02:47:59;11.23;;;3.63;;
53650;SDS011;39552;45.776;15.892;2022-08-19T02:50:28;10.38;;;3.72;;
53650;SDS011;39552;45.776;15.892;2022-08-19T02:52:55;7.80;;;3.20;;
53650;SDS011;39552;45.776;15.892;2022-08-19T02:55:22;6.85;;;3.17;;
53650;SDS011;39552;45.776;15.892;2022-08-19T02:57:48;10.50;;;3.03;;
53650;SDS011;39552;45.776;15.892;2022-08-19T03:00:15;13.35;;;3.40;;
53650;SDS011;39552;45.776;15.892;2022-08-19T03:02:43;10.88;;;3.67;;
53650;SDS011;39552;45.776;15.892;2022-08-19T03:05:10;10.70;;;3.47;;
53650;SDS011;39552;45.776;15.892;2022-08-19T03:07:37;12.35;;;3.33;;
53650;SDS011;39552;45.776;15.892;2022-08-19T03:10:04;13.13;;;3.38;;
53650;SDS011;39552;45.776;15.892;2022-08-19T03:12:34;6.20;;;2.90;;
53650;SDS011;39552;45.776;15.892;2022-08-19T03:15:02;15.45;;;3.25;;
53650;SDS011;39552;45.776;15.892;2022-08-19T03:17:30;103.95;;;7.32;;
53650;SDS011;39552;45.776;15.892;2022-08-19T03:19:58;13.02;;;3.40;;
53650;SDS011;39552;45.776;15.892;2022-08-19T03:22:25;9.95;;;2.63;;
53650;SDS011;39552;45.776;15.892;2022-08-19T03:24:52;15.00;;;3.30;;
53650;SDS011;39552;45.776;15.892;2022-08-19T03:27:18;6.95;;;2.60;;
53650;SDS011;39552;45.776;15.892;2022-08-19T03:29:45;12.00;;;3.17;;
53650;SDS011;39552;45.776;15.892;2022-08-19T03:32:14;8.63;;;3.25;;
53650;SDS011;39552;45.776;15.892;2022-08-19T03:34:59;7.63;;;3.05;;
53650;SDS011;39552;45.776;15.892;2022-08-19T03:37:26;7.90;;;2.83;;
53650;SDS011;39552;45.776;15.892;2022-08-19T03:39:52;8.27;;;3.17;;
53650;SDS011;39552;45.776;15.892;2022-08-19T03:42:19;8.73;;;3.05;;
53650;SDS011;39552;45.776;15.892;2022-08-19T03:45:06;9.20;;;3.25;;
53650;SDS011;39552;45.776;15.892;2022-08-19T03:47:33;11.30;;;3.05;;
53650;SDS011;39552;45.776;15.892;2022-08-19T03:50:01;10.02;;;3.08;;
53650;SDS011;39552;45.776;15.892;2022-08-19T03:52:29;8.52;;;2.60;;
53650;SDS011;39552;45.776;15.892;2022-08-19T03:54:56;11.00;;;3.00;;
53650;SDS011;39552;45.776;15.892;2022-08-19T03:57:22;10.23;;;3.15;;
53650;SDS011;39552;45.776;15.892;2022-08-19T03:59:57;9.70;;;3.05;;
53650;SDS011;39552;45.776;15.892;2022-08-19T04:02:39;14.18;;;3.28;;
53650;SDS011;39552;45.776;15.892;2022-08-19T04:05:07;8.93;;;2.70;;
53650;SDS011;39552;45.776;15.892;2022-08-19T04:07:34;8.40;;;3.00;;
53650;SDS011;39552;45.776;15.892;2022-08-19T04:10:02;11.70;;;2.95;;
53650;SDS011;39552;45.776;15.892;2022-08-19T04:12:29;8.68;;;3.13;;
53650;SDS011;39552;45.776;15.892;2022-08-19T04:14:56;11.45;;;2.97;;
53650;SDS011;39552;45.776;15.892;2022-08-19T04:17:23;11.65;;;3.50;;
53650;SDS011;39552;45.776;15.892;2022-08-19T04:19:49;11.90;;;3.28;;
53650;SDS011;39552;45.776;15.892;2022-08-19T04:22:18;7.45;;;2.90;;
53650;SDS011;39552;45.776;15.892;2022-08-19T04:24:44;12.13;;;3.28;;
53650;SDS011;39552;45.776;15.892;2022-08-19T04:27:11;8.27;;;3.03;;
53650;SDS011;39552;45.776;15.892;2022-08-19T04:29:38;11.30;;;3.10;;
53650;SDS011;39552;45.776;15.892;2022-08-19T04:32:04;16.40;;;3.60;;
53650;SDS011;39552;45.776;15.892;2022-08-19T04:34:35;13.60;;;3.25;;
53650;SDS011;39552;45.776;15.892;2022-08-19T04:37:24;10.38;;;3.03;;
53650;SDS011;39552;45.776;15.892;2022-08-19T04:39:54;12.05;;;3.40;;
53650;SDS011;39552;45.776;15.892;2022-08-19T04:42:27;10.95;;;3.30;;
53650;SDS011;39552;45.776;15.892;2022-08-19T04:44:56;11.27;;;2.80;;
53650;SDS011;39552;45.776;15.892;2022-08-19T04:47:24;12.70;;;3.47;;
53650;SDS011;39552;45.776;15.892;2022-08-19T04:50:11;7.78;;;2.97;;
53650;SDS011;39552;45.776;15.892;2022-08-19T04:52:39;13.50;;;3.33;;
53650;SDS011;39552;45.776;15.892;2022-08-19T04:55:06;14.60;;;3.33;;
53650;SDS011;39552;45.776;15.892;2022-08-19T04:57:33;10.10;;;3.03;;
53650;SDS011;39552;45.776;15.892;2022-08-19T05:00:00;13.63;;;3.25;;
53650;SDS011;39552;45.776;15.892;2022-08-19T05:02:27;15.55;;;3.30;;
53650;SDS011;39552;45.776;15.892;2022-08-19T05:04:55;13.55;;;3.17;;
53650;SDS011;39552;45.776;15.892;2022-08-19T05:07:22;11.30;;;3.45;;
53650;SDS011;39552;45.776;15.892;2022-08-19T05:09:50;18.38;;;3.28;;
53650;SDS011;39552;45.776;15.892;2022-08-19T05:12:24;9.65;;;3.40;;
53650;SDS011;39552;45.776;15.892;2022-08-19T05:14:54;12.32;;;3.33;;
53650;SDS011;39552;45.776;15.892;2022-08-19T05:17:22;8.98;;;3.00;;
53650;SDS011;39552;45.776;15.892;2022-08-19T05:19:53;12.77;;;3.10;;
53650;SDS011;39552;45.776;15.892;2022-08-19T05:22:20;17.77;;;4.15;;
53650;SDS011;39552;45.776;15.892;2022-08-19T05:24:47;11.55;;;3.00;;
53650;SDS011;39552;45.776;15.892;2022-08-19T05:27:35;10.88;;;3.50;;
53650;SDS011;39552;45.776;15.892;2022-08-19T05:30:02;11.95;;;3.28;;
53650;SDS011;39552;45.776;15.892;2022-08-19T05:32:30;9.75;;;3.17;;
53650;SDS011;39552;45.776;15.892;2022-08-19T05:34:56;12.98;;;3.20;;
53650;SDS011;39552;45.776;15.892;2022-08-19T05:37:23;13.35;;;3.53;;
53650;SDS011;39552;45.776;15.892;2022-08-19T05:39:50;14.38;;;3.22;;
53650;SDS011;39552;45.776;15.892;2022-08-19T05:42:17;13.45;;;4.00;;
53650;SDS011;39552;45.776;15.892;2022-08-19T05:44:45;21.08;;;3.30;;
53650;SDS011;39552;45.776;15.892;2022-08-19T05:47:12;14.00;;;2.92;;
53650;SDS011;39552;45.776;15.892;2022-08-19T05:49:39;11.60;;;2.88;;
53650;SDS011;39552;45.776;15.892;2022-08-19T05:52:07;6.93;;;2.50;;
53650;SDS011;39552;45.776;15.892;2022-08-19T05:54:37;14.63;;;2.67;;
53650;SDS011;39552;45.776;15.892;2022-08-19T05:57:04;20.58;;;2.90;;
53650;SDS011;39552;45.776;15.892;2022-08-19T05:59:31;15.32;;;2.90;;
53650;SDS011;39552;45.776;15.892;2022-08-19T06:02:01;29.95;;;4.13;;
53650;SDS011;39552;45.776;15.892;2022-08-19T06:04:28;8.95;;;2.50;;
53650;SDS011;39552;45.776;15.892;2022-08-19T06:06:55;8.18;;;2.20;;
53650;SDS011;39552;45.776;15.892;2022-08-19T06:09:22;6.47;;;2.20;;
53650;SDS011;39552;45.776;15.892;2022-08-19T06:11:50;9.38;;;2.33;;
53650;SDS011;39552;45.776;15.892;2022-08-19T06:14:21;6.63;;;2.55;;
53650;SDS011;39552;45.776;15.892;2022-08-19T06:16:53;9.63;;;2.45;;
53650;SDS011;39552;45.776;15.892;2022-08-19T06:19:22;7.25;;;2.17;;
53650;SDS011;39552;45.776;15.892;2022-08-19T06:21:50;7.40;;;2.20;;
53650;SDS011;39552;45.776;15.892;2022-08-19T06:24:18;8.60;;;1.93;;
53650;SDS011;39552;45.776;15.892;2022-08-19T06:26:48;4.20;;;1.65;;
53650;SDS011;39552;45.776;15.892;2022-08-19T06:29:18;12.38;;;2.65;;
53650;SDS011;39552;45.776;15.892;2022-08-19T06:31:50;6.78;;;2.17;;
53650;SDS011;39552;45.776;15.892;2022-08-19T06:34:19;7.25;;;1.98;;
53650;SDS011;39552;45.776;15.892;2022-08-19T06:36:49;19.83;;;2.95;;
53650;SDS011;39552;45.776;15.892;2022-08-19T06:39:17;5.50;;;2.00;;
53650;SDS011;39552;45.776;15.892;2022-08-19T06:41:48;5.25;;;2.05;;
53650;SDS011;39552;45.776;15.892;2022-08-19T06:44:21;4.63;;;1.95;;
53650;SDS011;39552;45.776;15.892;2022-08-19T06:46:51;5.32;;;2.10;;
53650;SDS011;39552;45.776;15.892;2022-08-19T06:49:20;6.50;;;2.30;;
53650;SDS011;39552;45.776;15.892;2022-08-19T06:51:49;8.55;;;1.90;;
53650;SDS011;39552;45.776;15.892;2022-08-19T06:54:17;6.50;;;2.20;;
53650;SDS011;39552;45.776;15.892;2022-08-19T06:56:45;8.00;;;1.98;;
53650;SDS011;39552;45.776;15.892;2022-08-19T06:59:14;5.32;;;2.00;;
53650;SDS011;39552;45.776;15.892;2022-08-19T07:02:02;4.35;;;1.83;;
53650;SDS011;39552;45.776;15.892;2022-08-19T07:04:33;8.65;;;1.80;;
53650;SDS011;39552;45.776;15.892;2022-08-19T07:07:03;8.57;;;2.58;;
53650;SDS011;39552;45.776;15.892;2022-08-19T07:09:49;8.05;;;2.58;;
53650;SDS011;39552;45.776;15.892;2022-08-19T07:15:26;9.02;;;2.28;;
53650;SDS011;39552;45.776;15.892;2022-08-19T07:18:03;5.55;;;2.20;;
53650;SDS011;39552;45.776;15.892;2022-08-19T07:20:42;3.97;;;1.90;;
53650;SDS011;39552;45.776;15.892;2022-08-19T07:23:14;10.07;;;2.20;;
53650;SDS011;39552;45.776;15.892;2022-08-19T07:25:42;6.90;;;2.00;;
53650;SDS011;39552;45.776;15.892;2022-08-19T07:28:19;7.25;;;2.08;;
53650;SDS011;39552;45.776;15.892;2022-08-19T07:30:51;6.45;;;2.03;;
53650;SDS011;39552;45.776;15.892;2022-08-19T07:33:18;8.73;;;2.17;;
53650;SDS011;39552;45.776;15.892;2022-08-19T07:35:54;9.65;;;1.90;;
53650;SDS011;39552;45.776;15.892;2022-08-19T07:38:21;5.30;;;1.63;;
53650;SDS011;39552;45.776;15.892;2022-08-19T07:41:03;4.35;;;1.80;;
53650;SDS011;39552;45.776;15.892;2022-08-19T07:43:44;8.07;;;2.33;;
53650;SDS011;39552;45.776;15.892;2022-08-19T07:46:11;3.33;;;1.38;;
53650;SDS011;39552;45.776;15.892;2022-08-19T07:48:39;5.13;;;1.80;;
53650;SDS011;39552;45.776;15.892;2022-08-19T07:51:09;5.22;;;1.58;;
53650;SDS011;39552;45.776;15.892;2022-08-19T07:53:39;4.30;;;2.10;;
53650;SDS011;39552;45.776;15.892;2022-08-19T07:56:07;5.70;;;1.88;;
53650;SDS011;39552;45.776;15.892;2022-08-19T08:04:09;7.93;;;1.92;;
53650;SDS011;39552;45.776;15.892;2022-08-19T08:16:24;6.93;;;1.75;;
53650;SDS011;39552;45.776;15.892;2022-08-19T08:18:52;9.32;;;1.83;;
53650;SDS011;39552;45.776;15.892;2022-08-19T08:21:19;4.13;;;1.63;;
53650;SDS011;39552;45.776;15.892;2022-08-19T08:23:46;6.53;;;1.98;;
53650;SDS011;39552;45.776;15.892;2022-08-19T08:26:13;9.32;;;1.73;;
53650;SDS011;39552;45.776;15.892;2022-08-19T08:28:41;5.70;;;1.88;;
53650;SDS011;39552;45.776;15.892;2022-08-19T08:31:14;13.57;;;2.20;;
53650;SDS011;39552;45.776;15.892;2022-08-19T08:33:42;13.68;;;2.20;;
53650;SDS011;39552;45.776;15.892;2022-08-19T08:36:13;11.52;;;2.05;;
53650;SDS011;39552;45.776;15.892;2022-08-19T08:38:44;9.65;;;1.80;;
53650;SDS011;39552;45.776;15.892;2022-08-19T08:41:13;8.57;;;2.20;;
53650;SDS011;39552;45.776;15.892;2022-08-19T08:43:49;13.90;;;2.25;;
53650;SDS011;39552;45.776;15.892;2022-08-19T08:46:20;20.55;;;2.60;;
53650;SDS011;39552;45.776;15.892;2022-08-19T08:48:59;11.13;;;2.28;;
53650;SDS011;39552;45.776;15.892;2022-08-19T08:51:33;9.68;;;2.35;;
53650;SDS011;39552;45.776;15.892;2022-08-19T08:54:04;8.75;;;2.03;;
53650;SDS011;39552;45.776;15.892;2022-08-19T08:56:37;7.63;;;2.15;;
53650;SDS011;39552;45.776;15.892;2022-08-19T09:01:33;13.02;;;2.30;;
53650;SDS011;39552;45.776;15.892;2022-08-19T09:04:03;5.82;;;2.40;;
53650;SDS011;39552;45.776;15.892;2022-08-19T09:06:32;7.22;;;2.35;;
53650;SDS011;39552;45.776;15.892;2022-08-19T09:09:10;17.77;;;2.75;;
53650;SDS011;39552;45.776;15.892;2022-08-19T09:11:45;11.18;;;2.50;;
53650;SDS011;39552;45.776;15.892;2022-08-19T09:14:27;8.23;;;2.25;;
53650;SDS011;39552;45.776;15.892;2022-08-19T09:17:18;13.20;;;2.40;;
53650;SDS011;39552;45.776;15.892;2022-08-19T09:19:50;8.38;;;2.28;;
53650;SDS011;39552;45.776;15.892;2022-08-19T09:22:18;18.02;;;3.20;;
53650;SDS011;39552;45.776;15.892;2022-08-19T09:24:52;13.20;;;2.30;;
53650;SDS011;39552;45.776;15.892;2022-08-19T09:27:21;13.45;;;3.00;;
53650;SDS011;39552;45.776;15.892;2022-08-19T09:30:08;8.95;;;2.67;;
53650;SDS011;39552;45.776;15.892;2022-08-19T09:32:38;15.48;;;3.33;;
53650;SDS011;39552;45.776;15.892;2022-08-19T09:35:06;5.53;;;2.17;;
53650;SDS011;39552;45.776;15.892;2022-08-19T09:37:35;10.75;;;2.67;;
53650;SDS011;39552;45.776;15.892;2022-08-19T09:40:02;8.38;;;2.65;;
53650;SDS011;39552;45.776;15.892;2022-08-19T09:42:30;8.27;;;2.95;;
53650;SDS011;39552;45.776;15.892;2022-08-19T09:45:00;12.57;;;2.60;;
53650;SDS011;39552;45.776;15.892;2022-08-19T09:47:30;9.48;;;2.75;;
53650;SDS011;39552;45.776;15.892;2022-08-19T09:49:57;5.53;;;2.50;;
53650;SDS011;39552;45.776;15.892;2022-08-19T09:52:25;12.35;;;2.90;;
53650;SDS011;39552;45.776;15.892;2022-08-19T09:54:58;10.98;;;2.80;;
53650;SDS011;39552;45.776;15.892;2022-08-19T09:57:25;7.20;;;2.70;;
53650;SDS011;39552;45.776;15.892;2022-08-19T09:59:52;12.68;;;2.95;;
53650;SDS011;39552;45.776;15.892;2022-08-19T10:02:18;12.20;;;3.60;;
53650;SDS011;39552;45.776;15.892;2022-08-19T10:04:47;19.40;;;3.92;;
53650;SDS011;39552;45.776;15.892;2022-08-19T10:07:14;14.05;;;3.88;;
53650;SDS011;39552;45.776;15.892;2022-08-19T10:09:44;20.10;;;3.92;;
53650;SDS011;39552;45.776;15.892;2022-08-19T10:12:11;16.25;;;4.25;;
53650;SDS011;39552;45.776;15.892;2022-08-19T10:14:43;13.77;;;3.80;;
53650;SDS011;39552;45.776;15.892;2022-08-19T10:17:10;13.85;;;4.15;;
53650;SDS011;39552;45.776;15.892;2022-08-19T10:19:45;29.42;;;5.15;;
53650;SDS011;39552;45.776;15.892;2022-08-19T10:22:21;20.73;;;4.03;;
53650;SDS011;39552;45.776;15.892;2022-08-19T10:24:52;16.02;;;4.28;;
53650;SDS011;39552;45.776;15.892;2022-08-19T10:27:19;32.92;;;4.43;;
53650;SDS011;39552;45.776;15.892;2022-08-19T10:29:45;4.82;;;2.10;;
53650;SDS011;39552;45.776;15.892;2022-08-19T10:32:13;15.13;;;4.88;;
53650;SDS011;39552;45.776;15.892;2022-08-19T10:34:40;21.25;;;4.45;;
53650;SDS011;39552;45.776;15.892;2022-08-19T10:37:14;13.48;;;3.55;;
53650;SDS011;39552;45.776;15.892;2022-08-19T10:39:49;16.30;;;4.70;;
53650;SDS011;39552;45.776;15.892;2022-08-19T10:42:18;17.15;;;3.97;;
53650;SDS011;39552;45.776;15.892;2022-08-19T10:44:45;10.93;;;3.10;;
53650;SDS011;39552;45.776;15.892;2022-08-19T10:47:12;16.52;;;4.85;;
53650;SDS011;39552;45.776;15.892;2022-08-19T10:49:51;18.08;;;3.90;;
53650;SDS011;39552;45.776;15.892;2022-08-19T10:52:20;17.63;;;4.47;;
53650;SDS011;39552;45.776;15.892;2022-08-19T10:54:57;16.50;;;4.10;;
53650;SDS011;39552;45.776;15.892;2022-08-19T10:57:35;13.45;;;3.70;;
53650;SDS011;39552;45.776;15.892;2022-08-19T11:00:22;11.17;;;3.80;;
53650;SDS011;39552;45.776;15.892;2022-08-19T11:02:50;17.25;;;4.25;;
53650;SDS011;39552;45.776;15.892;2022-08-19T11:05:17;16.73;;;4.22;;
53650;SDS011;39552;45.776;15.892;2022-08-19T11:07:44;19.85;;;4.80;;
53650;SDS011;39552;45.776;15.892;2022-08-19T11:10:13;12.90;;;3.95;;
53650;SDS011;39552;45.776;15.892;2022-08-19T11:12:48;14.07;;;3.88;;
53650;SDS011;39552;45.776;15.892;2022-08-19T11:15:15;10.63;;;3.83;;
53650;SDS011;39552;45.776;15.892;2022-08-19T11:17:44;11.48;;;3.60;;
53650;SDS011;39552;45.776;15.892;2022-08-19T11:22:48;12.85;;;3.60;;
53650;SDS011;39552;45.776;15.892;2022-08-19T11:25:17;11.90;;;3.40;;
53650;SDS011;39552;45.776;15.892;2022-08-19T11:27:44;13.15;;;3.38;;
53650;SDS011;39552;45.776;15.892;2022-08-19T11:30:13;12.35;;;3.97;;
53650;SDS011;39552;45.776;15.892;2022-08-19T11:32:40;15.43;;;3.72;;
53650;SDS011;39552;45.776;15.892;2022-08-19T11:35:13;12.82;;;4.13;;
53650;SDS011;39552;45.776;15.892;2022-08-19T11:37:41;12.90;;;3.88;;
53650;SDS011;39552;45.776;15.892;2022-08-19T11:40:08;13.30;;;3.60;;
53650;SDS011;39552;45.776;15.892;2022-08-19T11:42:36;10.88;;;3.25;;
53650;SDS011;39552;45.776;15.892;2022-08-19T11:45:03;12.52;;;3.17;;
53650;SDS011;39552;45.776;15.892;2022-08-19T11:47:31;15.00;;;3.60;;
53650;SDS011;39552;45.776;15.892;2022-08-19T11:49:58;12.90;;;3.38;;
53650;SDS011;39552;45.776;15.892;2022-08-19T11:52:25;15.65;;;4.13;;
53650;SDS011;39552;45.776;15.892;2022-08-19T11:54:52;16.23;;;3.33;;
53650;SDS011;39552;45.776;15.892;2022-08-19T11:57:19;9.70;;;2.90;;
53650;SDS011;39552;45.776;15.892;2022-08-19T11:59:49;13.68;;;3.60;;
53650;SDS011;39552;45.776;15.892;2022-08-19T12:02:16;11.95;;;3.70;;
53650;SDS011;39552;45.776;15.892;2022-08-19T12:04:44;15.85;;;3.42;;
53650;SDS011;39552;45.776;15.892;2022-08-19T12:07:12;19.47;;;4.10;;
53650;SDS011;39552;45.776;15.892;2022-08-19T12:09:40;10.52;;;3.60;;
53650;SDS011;39552;45.776;15.892;2022-08-19T12:12:08;10.57;;;3.58;;
53650;SDS011;39552;45.776;15.892;2022-08-19T12:14:36;14.93;;;4.00;;
53650;SDS011;39552;45.776;15.892;2022-08-19T12:17:03;15.75;;;3.55;;
53650;SDS011;39552;45.776;15.892;2022-08-19T12:19:30;9.00;;;3.60;;
53650;SDS011;39552;45.776;15.892;2022-08-19T12:21:59;11.70;;;3.90;;
53650;SDS011;39552;45.776;15.892;2022-08-19T12:24:27;19.02;;;3.80;;
53650;SDS011;39552;45.776;15.892;2022-08-19T12:26:55;11.52;;;3.63;;
53650;SDS011;39552;45.776;15.892;2022-08-19T12:29:28;12.20;;;3.40;;
53650;SDS011;39552;45.776;15.892;2022-08-19T12:31:55;16.92;;;4.10;;
53650;SDS011;39552;45.776;15.892;2022-08-19T12:34:22;17.48;;;3.83;;
53650;SDS011;39552;45.776;15.892;2022-08-19T12:36:49;18.52;;;4.20;;
53650;SDS011;39552;45.776;15.892;2022-08-19T12:39:17;13.45;;;3.60;;
53650;SDS011;39552;45.776;15.892;2022-08-19T12:41:44;17.38;;;3.85;;
53650;SDS011;39552;45.776;15.892;2022-08-19T12:44:19;15.75;;;3.75;;
53650;SDS011;39552;45.776;15.892;2022-08-19T12:46:54;16.42;;;3.53;;
53650;SDS011;39552;45.776;15.892;2022-08-19T12:49:21;13.75;;;3.80;;
53650;SDS011;39552;45.776;15.892;2022-08-19T12:52:08;13.82;;;3.22;;
53650;SDS011;39552;45.776;15.892;2022-08-19T12:54:37;11.93;;;3.17;;
53650;SDS011;39552;45.776;15.892;2022-08-19T12:57:04;15.00;;;4.33;;
53650;SDS011;39552;45.776;15.892;2022-08-19T12:59:31;16.40;;;4.33;;
53650;SDS011;39552;45.776;15.892;2022-08-19T13:01:58;13.73;;;3.35;;
53650;SDS011;39552;45.776;15.892;2022-08-19T13:04:25;15.57;;;4.00;;
53650;SDS011;39552;45.776;15.892;2022-08-19T13:06:53;11.80;;;3.33;;
53650;SDS011;39552;45.776;15.892;2022-08-19T13:09:20;12.98;;;3.50;;
53650;SDS011;39552;45.776;15.892;2022-08-19T13:11:48;12.93;;;3.55;;
53650;SDS011;39552;45.776;15.892;2022-08-19T13:14:14;12.87;;;3.43;;
53650;SDS011;39552;45.776;15.892;2022-08-19T13:16:41;13.02;;;3.53;;
53650;SDS011;39552;45.776;15.892;2022-08-19T13:19:08;18.25;;;4.40;;
53650;SDS011;39552;45.776;15.892;2022-08-19T13:21:34;15.05;;;4.10;;
53650;SDS011;39552;45.776;15.892;2022-08-19T13:24:01;17.35;;;3.55;;
53650;SDS011;39552;45.776;15.892;2022-08-19T13:26:29;20.42;;;4.13;;
53650;SDS011;39552;45.776;15.892;2022-08-19T13:28:57;14.00;;;3.60;;
53650;SDS011;39552;45.776;15.892;2022-08-19T13:31:24;13.40;;;3.47;;
53650;SDS011;39552;45.776;15.892;2022-08-19T13:36:19;14.57;;;3.70;;
53650;SDS011;39552;45.776;15.892;2022-08-19T13:38:46;23.38;;;4.07;;
53650;SDS011;39552;45.776;15.892;2022-08-19T13:41:12;12.85;;;3.25;;
53650;SDS011;39552;45.776;15.892;2022-08-19T13:43:40;24.05;;;4.15;;
53650;SDS011;39552;45.776;15.892;2022-08-19T13:46:09;16.08;;;4.22;;
53650;SDS011;39552;45.776;15.892;2022-08-19T13:48:37;10.65;;;3.15;;
53650;SDS011;39552;45.776;15.892;2022-08-19T13:51:04;11.75;;;3.80;;
53650;SDS011;39552;45.776;15.892;2022-08-19T13:53:31;13.98;;;3.50;;
53650;SDS011;39552;45.776;15.892;2022-08-19T13:55:58;16.58;;;3.72;;
53650;SDS011;39552;45.776;15.892;2022-08-19T13:58:25;11.98;;;4.00;;
53650;SDS011;39552;45.776;15.892;2022-08-19T14:00:52;20.88;;;4.55;;
53650;SDS011;39552;45.776;15.892;2022-08-19T14:03:20;15.18;;;3.72;;
53650;SDS011;39552;45.776;15.892;2022-08-19T14:05:47;22.57;;;3.50;;
53650;SDS011;39552;45.776;15.892;2022-08-19T14:08:13;17.67;;;4.25;;
53650;SDS011;39552;45.776;15.892;2022-08-19T14:10:40;18.70;;;4.40;;
53650;SDS011;39552;45.776;15.892;2022-08-19T14:13:07;17.13;;;3.80;;
53650;SDS011;39552;45.776;15.892;2022-08-19T14:15:34;14.75;;;4.05;;
53650;SDS011;39552;45.776;15.892;2022-08-19T14:18:01;13.00;;;3.45;;
53650;SDS011;39552;45.776;15.892;2022-08-19T14:20:29;13.38;;;3.67;;
53650;SDS011;39552;45.776;15.892;2022-08-19T14:22:55;18.03;;;3.47;;
53650;SDS011;39552;45.776;15.892;2022-08-19T14:25:23;13.32;;;3.28;;
53650;SDS011;39552;45.776;15.892;2022-08-19T14:27:51;16.65;;;3.88;;
53650;SDS011;39552;45.776;15.892;2022-08-19T14:30:19;11.90;;;3.22;;
53650;SDS011;39552;45.776;15.892;2022-08-19T14:32:47;16.48;;;4.22;;
53650;SDS011;39552;45.776;15.892;2022-08-19T14:35:14;14.95;;;3.65;;
53650;SDS011;39552;45.776;15.892;2022-08-19T14:37:44;20.10;;;4.35;;
53650;SDS011;39552;45.776;15.892;2022-08-19T14:40:12;19.05;;;3.70;;
53650;SDS011;39552;45.776;15.892;2022-08-19T14:42:39;17.03;;;4.70;;
53650;SDS011;39552;45.776;15.892;2022-08-19T14:45:07;15.82;;;3.58;;
53650;SDS011;39552;45.776;15.892;2022-08-19T14:47:35;12.23;;;3.58;;
53650;SDS011;39552;45.776;15.892;2022-08-19T14:50:05;16.52;;;3.92;;
53650;SDS011;39552;45.776;15.892;2022-08-19T14:52:35;16.60;;;3.88;;
53650;SDS011;39552;45.776;15.892;2022-08-19T14:55:04;16.83;;;4.47;;
53650;SDS011;39552;45.776;15.892;2022-08-19T14:57:33;16.00;;;3.63;;
53650;SDS011;39552;45.776;15.892;2022-08-19T15:00:03;13.68;;;3.67;;
53650;SDS011;39552;45.776;15.892;2022-08-19T15:02:31;14.32;;;3.47;;
53650;SDS011;39552;45.776;15.892;2022-08-19T15:07:27;22.02;;;4.38;;